createdAt,value
2017-07-19T00:00:20.446Z,55.60
2017-07-19T00:02:48.528Z,55.60
2017-07-19T00:05:16.614Z,55.90
2017-07-19T00:07:44.659Z,55.90
2017-07-19T00:10:12.715Z,55.70
2017-07-19T00:12:41.539Z,56.20
2017-07-19T00:15:09.959Z,56.10
2017-07-19T00:17:38.034Z,57.00
2017-07-19T00:20:06.103Z,56.10
2017-07-19T00:22:34.154Z,56.30
2017-07-19T00:25:02.471Z,56.20
2017-07-19T00:27:30.545Z,57.20
2017-07-19T00:29:59.360Z,56.00
2017-07-19T00:32:27.425Z,56.00
2017-07-19T00:34:55.475Z,56.30
2017-07-19T00:37:24.846Z,56.40
2017-07-19T00:39:52.915Z,56.40
2017-07-19T00:42:20.974Z,56.60
2017-07-19T00:44:49.034Z,56.60
2017-07-19T00:47:17.134Z,56.90
2017-07-19T00:49:45.201Z,56.60
2017-07-19T00:52:13.264Z,56.60
2017-07-19T00:54:41.325Z,56.90
2017-07-19T00:57:09.391Z,57.00
2017-07-19T00:59:37.458Z,56.90
2017-07-19T01:02:05.532Z,56.20
2017-07-19T01:04:33.867Z,56.70
2017-07-19T01:07:01.923Z,56.80
2017-07-19T01:09:30.458Z,56.50
2017-07-19T01:11:58.546Z,57.30
2017-07-19T01:14:26.598Z,57.20
2017-07-19T01:16:54.665Z,57.30
2017-07-19T01:19:23.084Z,57.20
2017-07-19T01:21:51.118Z,57.40
2017-07-19T01:24:19.200Z,57.40
2017-07-19T01:26:47.270Z,57.70
2017-07-19T01:29:15.315Z,57.70
2017-07-19T01:31:44.202Z,57.30
2017-07-19T01:34:12.297Z,57.80
2017-07-19T01:36:40.363Z,57.90
2017-07-19T01:39:08.416Z,58.10
2017-07-19T01:41:36.495Z,58.00
2017-07-19T01:44:05.219Z,58.00
2017-07-19T01:46:34.046Z,58.30
2017-07-19T01:49:02.128Z,58.20
2017-07-19T01:51:30.662Z,58.20
2017-07-19T01:53:59.488Z,58.60
2017-07-19T01:56:27.554Z,58.40
2017-07-19T01:58:55.626Z,58.60
2017-07-19T02:01:24.275Z,58.60
2017-07-19T02:03:53.105Z,58.50
2017-07-19T02:06:21.150Z,58.40
2017-07-19T02:08:49.202Z,58.90
2017-07-19T02:11:18.054Z,58.30
2017-07-19T02:13:46.199Z,58.60
2017-07-19T02:16:14.250Z,58.80
2017-07-19T02:18:42.323Z,59.40
2017-07-19T02:21:10.385Z,59.00
2017-07-19T02:23:38.552Z,59.10
2017-07-19T02:26:06.629Z,58.90
2017-07-19T02:28:34.702Z,58.80
2017-07-19T02:31:02.758Z,59.10
2017-07-19T02:33:30.842Z,59.20
2017-07-19T02:35:58.902Z,59.20
2017-07-19T02:38:26.966Z,59.40
2017-07-19T02:40:55.043Z,59.60
2017-07-19T02:43:24.818Z,59.70
2017-07-19T02:45:52.858Z,59.50
2017-07-19T02:48:20.932Z,59.70
2017-07-19T02:50:48.995Z,59.70
2017-07-19T02:53:17.064Z,59.90
2017-07-19T02:55:45.886Z,59.80
2017-07-19T02:58:14.796Z,59.90
2017-07-19T03:00:44.243Z,59.80
2017-07-19T03:03:12.299Z,59.80
2017-07-19T03:05:40.349Z,59.70
2017-07-19T03:08:08.532Z,59.80
2017-07-19T03:10:36.607Z,60.50
2017-07-19T03:13:05.783Z,60.10
2017-07-19T03:15:33.843Z,60.10
2017-07-19T03:18:02.685Z,60.70
2017-07-19T03:20:30.746Z,60.60
2017-07-19T03:22:58.826Z,61.00
2017-07-19T03:25:26.903Z,60.60
2017-07-19T03:27:54.977Z,60.60
2017-07-19T03:30:23.042Z,61.10
2017-07-19T03:32:51.465Z,60.40
2017-07-19T03:35:20.299Z,60.60
2017-07-19T03:37:48.374Z,60.60
2017-07-19T03:40:16.427Z,60.70
2017-07-19T03:42:45.177Z,60.70
2017-07-19T03:45:13.242Z,61.10
2017-07-19T03:47:41.303Z,60.70
2017-07-19T03:50:09.369Z,60.70
2017-07-19T03:52:37.423Z,61.10
2017-07-19T03:55:06.219Z,61.40
2017-07-19T03:57:34.278Z,61.20
2017-07-19T04:00:02.335Z,61.20
2017-07-19T04:02:30.406Z,60.90
2017-07-19T04:04:58.491Z,61.30
2017-07-19T04:07:26.567Z,61.10
2017-07-19T04:09:54.644Z,60.50
2017-07-19T04:12:22.698Z,60.80
2017-07-19T04:14:50.788Z,60.90
2017-07-19T04:17:18.846Z,61.10
2017-07-19T04:19:46.910Z,61.30
2017-07-19T04:22:15.010Z,60.40
2017-07-19T04:24:43.067Z,60.70
2017-07-19T04:27:11.138Z,60.40
2017-07-19T04:29:39.225Z,61.00
2017-07-19T04:32:08.067Z,61.40
2017-07-19T04:34:36.117Z,61.20
2017-07-19T04:37:04.407Z,60.40
2017-07-19T04:39:33.187Z,61.00
2017-07-19T04:42:01.304Z,60.90
2017-07-19T04:44:29.381Z,62.50
2017-07-19T04:46:57.443Z,61.10
2017-07-19T04:49:26.306Z,60.90
2017-07-19T04:51:54.457Z,61.40
2017-07-19T04:54:22.524Z,60.80
2017-07-19T04:56:50.575Z,61.60
2017-07-19T04:59:19.441Z,61.50
2017-07-19T05:01:47.519Z,61.40
2017-07-19T05:04:15.580Z,60.40
2017-07-19T05:06:43.664Z,61.70
2017-07-19T05:09:12.098Z,60.50
2017-07-19T05:11:40.167Z,60.90
2017-07-19T05:14:08.238Z,61.60
2017-07-19T05:16:36.308Z,60.20
2017-07-19T05:19:06.015Z,60.90
2017-07-19T05:21:34.050Z,60.80
2017-07-19T05:24:02.125Z,60.00
2017-07-19T05:26:30.190Z,59.70
2017-07-19T05:28:58.243Z,59.60
2017-07-19T05:31:26.615Z,59.90
2017-07-19T05:33:54.682Z,60.80
2017-07-19T05:36:22.756Z,60.70
2017-07-19T05:38:50.823Z,60.90
2017-07-19T05:41:18.900Z,60.90
2017-07-19T05:43:46.963Z,60.20
2017-07-19T05:46:15.051Z,60.90
2017-07-19T05:48:43.118Z,61.00
2017-07-19T05:51:11.951Z,60.70
2017-07-19T05:53:40.134Z,60.70
2017-07-19T05:56:08.189Z,61.00
2017-07-19T05:58:36.958Z,60.90
2017-07-19T06:01:05.671Z,60.70
2017-07-19T06:03:33.792Z,61.10
2017-07-19T06:06:01.861Z,60.90
2017-07-19T06:08:29.931Z,60.60
2017-07-19T06:10:58.117Z,60.70
2017-07-19T06:13:27.455Z,61.10
2017-07-19T06:15:55.632Z,61.10
2017-07-19T06:18:24.446Z,60.90
2017-07-19T06:20:52.953Z,60.90
2017-07-19T06:23:21.039Z,60.90
2017-07-19T06:25:49.860Z,60.70
2017-07-19T06:28:17.927Z,60.50
2017-07-19T06:30:46.539Z,61.20
2017-07-19T06:33:14.619Z,61.40
2017-07-19T06:35:42.696Z,62.10
2017-07-19T06:38:10.753Z,62.10
2017-07-19T06:40:38.843Z,60.80
2017-07-19T06:43:07.610Z,60.90
2017-07-19T06:45:35.680Z,61.30
2017-07-19T06:48:03.760Z,60.30
2017-07-19T06:50:31.813Z,60.10
2017-07-19T06:52:59.867Z,60.40
2017-07-19T06:55:28.378Z,60.40
2017-07-19T06:57:56.434Z,61.00
2017-07-19T07:00:24.532Z,60.70
2017-07-19T07:02:52.628Z,60.50
2017-07-19T07:05:21.482Z,60.60
2017-07-19T07:07:49.838Z,60.50
2017-07-19T07:10:17.933Z,60.70
2017-07-19T07:12:46.927Z,59.90
2017-07-19T07:15:14.991Z,59.60
2017-07-19T07:17:43.075Z,59.10
2017-07-19T07:20:11.130Z,58.90
2017-07-19T07:22:39.195Z,58.80
2017-07-19T07:25:07.269Z,59.10
2017-07-19T07:27:35.339Z,58.90
2017-07-19T07:30:03.401Z,58.90
2017-07-19T07:32:32.284Z,58.20
2017-07-19T07:35:00.327Z,58.20
2017-07-19T07:37:28.384Z,58.10
2017-07-19T07:39:56.454Z,58.20
2017-07-19T07:42:24.515Z,58.00
2017-07-19T07:44:52.599Z,57.50
2017-07-19T07:47:20.670Z,57.70
2017-07-19T07:49:48.714Z,57.40
2017-07-19T07:52:16.806Z,57.80
2017-07-19T07:54:44.875Z,57.80
2017-07-19T07:57:12.932Z,57.20
2017-07-19T07:59:41.025Z,56.40
2017-07-19T08:02:09.175Z,56.70
2017-07-19T08:04:37.258Z,56.50
2017-07-19T08:07:05.328Z,56.00
2017-07-19T08:09:33.403Z,55.60
2017-07-19T08:12:01.459Z,55.80
2017-07-19T08:14:29.547Z,54.60
2017-07-19T08:16:57.618Z,54.40
2017-07-19T08:19:25.712Z,54.70
2017-07-19T08:21:53.747Z,54.40
2017-07-19T08:24:21.830Z,54.40
2017-07-19T08:26:49.892Z,52.80
2017-07-19T08:29:17.970Z,51.90
2017-07-19T08:31:46.066Z,51.80
2017-07-19T08:34:14.116Z,52.00
2017-07-19T08:36:42.209Z,52.00
2017-07-19T08:39:10.264Z,51.60
2017-07-19T08:41:38.327Z,50.80
2017-07-19T08:44:06.414Z,50.20
2017-07-19T08:46:34.456Z,49.60
2017-07-19T08:49:02.537Z,48.80
2017-07-19T08:51:30.614Z,48.00
2017-07-19T08:53:58.666Z,48.40
2017-07-19T08:56:27.595Z,47.50
2017-07-19T08:58:55.670Z,47.00
2017-07-19T09:01:23.749Z,46.30
2017-07-19T09:03:51.815Z,45.80
2017-07-19T09:06:19.867Z,45.90
2017-07-19T09:08:47.933Z,45.40
2017-07-19T09:11:15.985Z,44.60
2017-07-19T09:13:44.047Z,43.50
2017-07-19T09:16:12.227Z,42.50
2017-07-19T09:18:40.300Z,42.80
2017-07-19T09:21:08.368Z,42.20
2017-07-19T09:23:36.475Z,41.70
2017-07-19T09:26:05.303Z,39.20
2017-07-19T09:28:33.373Z,39.10
2017-07-19T09:31:01.432Z,37.20
2017-07-19T09:33:29.487Z,34.10
2017-07-19T09:35:57.566Z,30.70
2017-07-19T09:38:25.733Z,29.20
2017-07-19T09:40:54.519Z,27.00
2017-07-19T09:43:22.593Z,26.80
2017-07-19T09:45:50.662Z,25.20
2017-07-19T09:48:18.743Z,25.20
2017-07-19T09:50:46.855Z,24.20
2017-07-19T09:53:14.923Z,24.30
2017-07-19T09:55:42.971Z,24.10
2017-07-19T09:58:11.020Z,24.10
2017-07-19T10:00:39.095Z,24.70
2017-07-19T10:03:07.233Z,24.20
2017-07-19T10:05:36.055Z,25.30
2017-07-19T10:08:04.121Z,25.30
2017-07-19T10:10:32.553Z,25.10
2017-07-19T10:13:00.587Z,25.30
2017-07-19T10:15:28.641Z,24.30
2017-07-19T10:17:56.713Z,24.10
2017-07-19T10:20:24.799Z,24.10
2017-07-19T10:22:52.847Z,23.60
2017-07-19T10:25:20.907Z,23.40
2017-07-19T10:27:49.003Z,22.50
2017-07-19T10:30:17.832Z,21.40
2017-07-19T10:32:45.887Z,21.40
2017-07-19T10:35:13.957Z,21.40
2017-07-19T10:37:42.016Z,21.20
2017-07-19T10:40:10.083Z,21.50
2017-07-19T10:42:38.187Z,20.60
2017-07-19T10:45:06.254Z,20.50
2017-07-19T10:47:34.306Z,19.80
2017-07-19T10:50:02.362Z,19.80
2017-07-19T10:52:31.207Z,19.50
2017-07-19T10:54:59.308Z,19.50
2017-07-19T10:57:28.946Z,18.60
2017-07-19T10:59:57.769Z,18.60
2017-07-19T11:02:25.848Z,18.60
2017-07-19T11:04:53.899Z,18.30
2017-07-19T11:07:21.967Z,18.70
2017-07-19T11:09:50.040Z,18.60
2017-07-19T11:12:18.120Z,18.90
2017-07-19T11:14:46.188Z,19.40
2017-07-19T11:17:14.251Z,19.30
2017-07-19T11:19:42.328Z,19.40
2017-07-19T11:22:10.407Z,18.90
2017-07-19T11:24:38.458Z,18.90
2017-07-19T11:27:06.527Z,19.40
2017-07-19T11:29:34.606Z,19.40
2017-07-19T11:32:02.675Z,19.40
2017-07-19T11:34:30.756Z,19.20
2017-07-19T11:36:58.888Z,18.80
2017-07-19T11:39:26.973Z,19.50
2017-07-19T11:41:55.040Z,21.20
2017-07-19T11:44:23.120Z,20.70
2017-07-19T11:46:51.190Z,20.90
2017-07-19T11:49:19.258Z,21.50
2017-07-19T11:51:47.331Z,22.10
2017-07-19T11:54:15.396Z,22.00
2017-07-19T11:56:43.481Z,22.20
2017-07-19T11:59:11.560Z,22.40
2017-07-19T12:01:39.661Z,23.40
2017-07-19T12:04:08.342Z,25.10
2017-07-19T12:06:36.406Z,26.10
2017-07-19T12:09:04.488Z,26.80
2017-07-19T12:11:32.554Z,29.10
2017-07-19T12:14:00.643Z,29.50
2017-07-19T12:16:30.245Z,31.60
2017-07-19T12:18:59.070Z,31.90
2017-07-19T12:21:27.143Z,31.60
2017-07-19T12:23:55.204Z,31.40
2017-07-19T12:26:23.275Z,32.20
2017-07-19T12:28:51.355Z,30.70
2017-07-19T12:31:19.419Z,31.10
2017-07-19T12:33:47.496Z,32.20
2017-07-19T12:36:15.987Z,32.10
2017-07-19T12:38:44.053Z,32.40
2017-07-19T12:41:12.134Z,33.30
2017-07-19T12:43:40.195Z,33.10
2017-07-19T12:46:09.106Z,32.20
2017-07-19T12:48:37.178Z,32.40
2017-07-19T12:51:05.249Z,32.30
2017-07-19T12:53:33.312Z,32.20
2017-07-19T12:56:01.371Z,32.60
2017-07-19T12:58:29.486Z,33.30
2017-07-19T13:00:57.511Z,33.30
2017-07-19T13:03:25.593Z,33.60
2017-07-19T13:05:53.647Z,34.00
2017-07-19T13:08:21.710Z,31.90
2017-07-19T13:10:49.776Z,31.70
2017-07-19T13:13:17.866Z,32.80
2017-07-19T13:15:45.943Z,32.70
2017-07-19T13:18:14.008Z,31.80
2017-07-19T13:20:42.116Z,31.80
2017-07-19T13:23:10.148Z,30.80
2017-07-19T13:25:38.967Z,31.80
2017-07-19T13:28:07.043Z,31.70
2017-07-19T13:30:35.110Z,31.20
2017-07-19T13:33:03.194Z,32.40
2017-07-19T13:35:31.264Z,31.80
2017-07-19T13:37:59.334Z,31.50
2017-07-19T13:40:27.406Z,32.10
2017-07-19T13:42:55.462Z,32.10
2017-07-19T13:45:23.501Z,32.20
2017-07-19T13:47:52.360Z,31.30
2017-07-19T13:50:20.451Z,30.60
2017-07-19T13:52:48.608Z,31.30
2017-07-19T13:55:16.643Z,32.10
2017-07-19T13:57:44.739Z,31.80
2017-07-19T14:00:12.788Z,32.20
2017-07-19T14:02:40.861Z,32.80
2017-07-19T14:05:08.952Z,33.20
2017-07-19T14:07:37.021Z,33.00
2017-07-19T14:10:05.077Z,34.00
2017-07-19T14:12:33.181Z,33.20
2017-07-19T14:15:01.251Z,32.80
2017-07-19T14:17:29.330Z,33.00
2017-07-19T14:19:57.410Z,34.30
2017-07-19T14:22:25.476Z,34.70
2017-07-19T14:24:53.555Z,34.10
2017-07-19T14:27:22.387Z,34.90
2017-07-19T14:29:50.446Z,34.80
2017-07-19T14:32:18.539Z,34.70
2017-07-19T14:34:46.599Z,35.50
2017-07-19T14:37:14.662Z,36.00
2017-07-19T14:39:42.752Z,36.10
2017-07-19T14:42:10.779Z,36.30
2017-07-19T14:44:38.854Z,36.60
2017-07-19T14:47:06.928Z,37.40
2017-07-19T14:49:35.750Z,37.20
2017-07-19T14:52:03.821Z,37.20
2017-07-19T14:54:31.899Z,37.80
2017-07-19T14:57:00.002Z,38.10
2017-07-19T14:59:28.042Z,38.70
2017-07-19T15:01:56.156Z,38.80
2017-07-19T15:04:24.228Z,38.90
2017-07-19T15:06:53.067Z,44.30
2017-07-19T15:09:21.143Z,43.60
2017-07-19T15:11:49.222Z,46.60
2017-07-19T15:14:17.287Z,49.20
2017-07-19T15:16:45.960Z,55.90
2017-07-19T15:19:14.026Z,65.00
2017-07-19T15:21:42.117Z,69.40
2017-07-19T15:24:10.204Z,79.90
2017-07-19T15:26:39.032Z,92.40
2017-07-19T15:29:08.311Z,92.00
2017-07-19T15:31:36.366Z,94.70
2017-07-19T15:34:04.436Z,95.90
2017-07-19T15:36:33.275Z,91.00
2017-07-19T15:39:01.355Z,91.00
2017-07-19T15:41:29.445Z,93.10
2017-07-19T15:43:57.532Z,94.10
2017-07-19T15:46:25.599Z,93.20
2017-07-19T15:48:54.472Z,92.90
2017-07-19T15:51:22.563Z,92.80
2017-07-19T15:53:52.046Z,92.50
2017-07-19T15:56:20.131Z,92.40
2017-07-19T15:58:48.208Z,92.10
2017-07-19T16:01:17.410Z,91.40
2017-07-19T16:03:45.559Z,91.40
2017-07-19T16:06:13.619Z,91.50
2017-07-19T16:08:41.689Z,90.90
2017-07-19T16:11:09.787Z,92.00
2017-07-19T16:13:38.616Z,91.90
2017-07-19T16:16:06.693Z,91.80
2017-07-19T16:18:34.850Z,91.10
2017-07-19T16:21:03.683Z,93.30
2017-07-19T16:23:31.742Z,93.30
2017-07-19T16:25:59.843Z,95.70
2017-07-19T16:28:27.919Z,95.60
2017-07-19T16:30:55.983Z,95.70
2017-07-19T16:33:24.109Z,93.70
2017-07-19T16:35:52.154Z,94.80
2017-07-19T16:38:21.019Z,93.80
2017-07-19T16:40:49.100Z,93.80
2017-07-19T16:43:18.103Z,93.30
2017-07-19T16:45:46.174Z,93.10
2017-07-19T16:48:15.011Z,94.40
2017-07-19T16:50:43.115Z,94.30
2017-07-19T16:53:11.260Z,94.80
2017-07-19T16:55:40.055Z,97.10
2017-07-19T16:58:08.142Z,96.70
2017-07-19T17:00:36.223Z,95.70
2017-07-19T17:03:04.324Z,94.60
2017-07-19T17:05:32.886Z,94.80
2017-07-19T17:08:01.745Z,95.00
2017-07-19T17:10:29.843Z,94.90
2017-07-19T17:12:57.926Z,95.60
2017-07-19T17:15:26.776Z,96.20
2017-07-19T17:17:54.843Z,96.10
2017-07-19T17:20:23.841Z,95.60
2017-07-19T17:22:51.939Z,96.90
2017-07-19T17:25:22.136Z,93.90
2017-07-19T17:27:50.745Z,94.10
2017-07-19T17:30:18.980Z,92.90
2017-07-19T17:32:47.252Z,92.80
2017-07-19T17:35:16.069Z,92.20
2017-07-19T17:37:44.133Z,92.10
2017-07-19T17:40:12.231Z,90.50
2017-07-19T17:42:40.279Z,91.50
2017-07-19T17:45:10.907Z,89.90
2017-07-19T17:47:39.539Z,90.10
2017-07-19T17:50:08.367Z,90.10
2017-07-19T17:52:36.475Z,90.10
2017-07-19T17:55:04.561Z,89.10
2017-07-19T17:57:32.628Z,90.20
2017-07-19T18:00:00.710Z,90.40
2017-07-19T18:02:29.545Z,89.30
2017-07-19T18:04:57.620Z,89.10
2017-07-19T18:07:25.698Z,88.80
2017-07-19T18:09:53.755Z,88.80
2017-07-19T18:12:21.830Z,89.00
2017-07-19T18:14:49.896Z,87.20
2017-07-19T18:17:17.992Z,87.00
2017-07-19T18:19:46.035Z,85.10
2017-07-19T18:22:14.235Z,85.40
2017-07-19T18:24:42.321Z,86.40
2017-07-19T18:27:10.364Z,85.00
2017-07-19T18:29:38.449Z,85.00
2017-07-19T18:32:06.545Z,85.20
2017-07-19T18:34:35.381Z,84.20
2017-07-19T18:37:03.469Z,84.10
2017-07-19T18:39:31.536Z,83.60
2017-07-19T18:41:59.592Z,83.70
2017-07-19T18:44:27.683Z,84.80
2017-07-19T18:46:55.760Z,84.70
2017-07-19T18:49:23.848Z,85.20
2017-07-19T18:51:52.666Z,83.70
2017-07-19T18:54:20.763Z,83.70
2017-07-19T18:56:48.837Z,83.80
2017-07-19T18:59:16.911Z,84.10
2017-07-19T19:01:45.010Z,83.80
2017-07-19T19:04:13.074Z,84.20
2017-07-19T19:06:41.161Z,84.30
2017-07-19T19:09:09.986Z,82.00
2017-07-19T19:11:38.105Z,81.90
2017-07-19T19:14:06.157Z,79.00
2017-07-19T19:16:34.311Z,78.90
2017-07-19T19:19:02.384Z,79.40
2017-07-19T19:21:30.454Z,79.80
2017-07-19T19:23:58.573Z,82.60
2017-07-19T19:26:26.636Z,83.50
2017-07-19T19:28:54.717Z,82.70
2017-07-19T19:31:22.807Z,82.70
2017-07-19T19:33:50.863Z,83.10
2017-07-19T19:36:18.976Z,82.20
2017-07-19T19:38:47.804Z,83.20
2017-07-19T19:41:15.895Z,83.10
2017-07-19T19:43:43.962Z,82.00
2017-07-19T19:46:12.187Z,81.30
2017-07-19T19:48:40.258Z,82.20
2017-07-19T19:51:08.331Z,82.70
2017-07-19T19:53:36.418Z,82.30
2017-07-19T19:56:04.731Z,83.60
2017-07-19T19:58:32.798Z,83.40
2017-07-19T20:01:00.892Z,81.80
2017-07-19T20:03:29.743Z,82.50
2017-07-19T20:05:57.839Z,82.50
2017-07-19T20:08:25.910Z,82.00
2017-07-19T20:10:54.002Z,81.80
2017-07-19T20:13:22.874Z,81.90
2017-07-19T20:15:50.919Z,81.90
2017-07-19T20:18:19.441Z,81.60
2017-07-19T20:20:47.481Z,82.20
2017-07-19T20:23:15.571Z,82.10
2017-07-19T20:25:44.402Z,82.00
2017-07-19T20:28:12.486Z,82.00
2017-07-19T20:30:40.563Z,82.80
2017-07-19T20:33:08.628Z,83.10
2017-07-19T20:35:36.716Z,81.60
2017-07-19T20:38:04.807Z,81.90
2017-07-19T20:40:33.640Z,81.30
2017-07-19T20:43:01.736Z,81.30
2017-07-19T20:45:29.786Z,80.00
2017-07-19T20:47:57.843Z,80.80
2017-07-19T20:50:25.924Z,80.90
2017-07-19T20:52:53.982Z,81.10
2017-07-19T20:55:22.063Z,81.10
2017-07-19T20:57:50.151Z,81.40
2017-07-19T21:00:18.215Z,80.90
2017-07-19T21:02:46.314Z,81.10
2017-07-19T21:05:14.374Z,81.50
2017-07-19T21:07:42.441Z,81.90
2017-07-19T21:10:10.508Z,81.10
2017-07-19T21:12:38.617Z,81.10
2017-07-19T21:15:07.456Z,81.30
2017-07-19T21:17:35.543Z,81.30
2017-07-19T21:20:03.609Z,81.80
2017-07-19T21:22:33.523Z,82.20
2017-07-19T21:25:01.587Z,82.00
2017-07-19T21:27:29.655Z,81.40
2017-07-19T21:29:57.726Z,81.10
2017-07-19T21:32:25.775Z,80.90
2017-07-19T21:34:54.627Z,81.10
2017-07-19T21:37:22.724Z,80.90
2017-07-19T21:39:50.820Z,80.80
2017-07-19T21:42:19.648Z,79.60
2017-07-19T21:44:47.711Z,79.50
2017-07-19T21:47:15.782Z,80.10
2017-07-19T21:49:43.854Z,80.10
2017-07-19T21:52:11.927Z,79.70
2017-07-19T21:54:40.040Z,80.20
2017-07-19T21:57:08.104Z,80.60
2017-07-19T21:59:36.187Z,80.30
2017-07-19T22:02:04.242Z,80.20
2017-07-19T22:04:32.367Z,80.60
2017-07-19T22:07:00.524Z,81.30
2017-07-19T22:09:28.610Z,80.70
2017-07-19T22:11:56.684Z,80.10
2017-07-19T22:14:24.735Z,80.50
2017-07-19T22:16:52.816Z,81.00
2017-07-19T22:19:21.099Z,80.70
2017-07-19T22:21:49.199Z,80.50
2017-07-19T22:24:17.267Z,80.60
2017-07-19T22:26:45.336Z,80.00
2017-07-19T22:29:13.417Z,80.60
2017-07-19T22:31:41.480Z,80.20
2017-07-19T22:34:09.549Z,80.60
2017-07-19T22:36:37.627Z,80.90
2017-07-19T22:39:05.711Z,81.60
2017-07-19T22:41:33.759Z,81.60
2017-07-19T22:44:01.868Z,81.90
2017-07-19T22:46:30.723Z,82.50
2017-07-19T22:48:58.790Z,82.50
2017-07-19T22:51:26.871Z,82.40
2017-07-19T22:53:54.951Z,80.70
2017-07-19T22:56:23.009Z,80.50
2017-07-19T22:58:51.081Z,80.80
2017-07-19T23:01:19.159Z,80.80
2017-07-19T23:03:47.219Z,80.40
2017-07-19T23:06:15.299Z,79.80
2017-07-19T23:08:43.383Z,80.30
2017-07-19T23:11:12.220Z,80.20
2017-07-19T23:13:40.300Z,79.90
2017-07-19T23:16:08.384Z,80.50
2017-07-19T23:18:36.442Z,80.80
2017-07-19T23:21:04.502Z,81.00
2017-07-19T23:23:32.593Z,81.40
2017-07-19T23:26:00.689Z,81.10
2017-07-19T23:28:28.747Z,80.70
2017-07-19T23:30:56.831Z,81.10
2017-07-19T23:33:25.667Z,80.70
2017-07-19T23:35:53.747Z,80.60
2017-07-19T23:38:21.831Z,81.10
2017-07-19T23:40:49.911Z,80.60
2017-07-19T23:43:17.980Z,79.80
2017-07-19T23:45:46.043Z,80.30
2017-07-19T23:48:14.115Z,80.10
2017-07-19T23:50:42.198Z,80.50
2017-07-19T23:53:10.276Z,80.30
2017-07-19T23:55:39.126Z,80.20
2017-07-19T23:58:07.183Z,80.20
